Arkadelphia, Alabama
Current Conditions -  °F | °C
As of 12:35 PM on Wednesday 26 Nov 2014 (Local Time) from KJFX Reporting Station
Clear Clear  
Wind Chill: 57°   Ceiling: Unl
Heat Index: 57°   Visibility: 10mi
Dew Point: 28°   Wind: 8mph
Humidity: 33%   Direction: 210°SSW
Pressure: 30.11"   Gusts: NA
Location:  33.9511°N, 87.0046°W
Report Text: KJFX 261835Z AUTO 21007KT 10SM CLR 14/M02 A3011 RMK A02 P-128
Loading
Personal Weather Stations






























Interactive Weather Map New forecast layout! Learn more

10-Day Weather Forecast

Advertisements
Track Severe Weather on mobile